createdAt,value
2014-07-06T15:08:40.971Z,31
2014-07-06T15:08:58.707Z,31
2014-07-06T15:09:15.692Z,31
2014-07-06T15:09:32.785Z,31
2014-07-06T15:09:50.520Z,31
2014-07-06T15:10:08.756Z,31
2014-07-06T15:10:27.147Z,31
2014-07-06T15:10:45.569Z,31
2014-07-06T15:11:03.805Z,31
2014-07-06T15:11:21.555Z,31
2014-07-06T15:11:37.914Z,31
2014-07-06T15:11:54.260Z,31
2014-07-06T15:12:11.870Z,31
2014-07-06T15:12:28.854Z,31
2014-07-06T15:12:47.088Z,31
2014-07-06T15:13:04.059Z,31
2014-07-06T15:13:21.668Z,31
2014-07-06T15:13:39.403Z,31
2014-07-06T15:13:57.154Z,31
2014-07-06T15:14:15.373Z,31
2014-07-06T15:14:32.982Z,32
2014-07-06T15:14:51.388Z,31
2014-07-06T15:15:09.000Z,31
2014-07-06T15:15:26.609Z,31
2014-07-06T15:15:44.203Z,31
2014-07-06T15:16:01.189Z,31
2014-07-06T15:16:19.408Z,31
2014-07-06T15:16:37.017Z,31
2014-07-06T15:16:54.629Z,31
2014-07-06T15:17:12.988Z,31
2014-07-06T15:17:30.597Z,31
2014-07-06T15:17:48.879Z,31
2014-07-06T15:18:05.990Z,31
2014-07-06T15:18:23.724Z,31
2014-07-06T15:18:41.334Z,31
2014-07-06T15:18:59.570Z,31
2014-07-06T15:19:17.179Z,31
2014-07-06T15:19:34.773Z,31
2014-07-06T15:19:53.008Z,31
2014-07-06T15:20:11.291Z,31
2014-07-06T15:20:28.900Z,31
2014-07-06T15:20:47.119Z,31
2014-07-06T15:21:04.105Z,31
2014-07-06T15:21:21.715Z,32
2014-07-06T15:21:38.683Z,32
2014-07-06T15:21:56.293Z,32
2014-07-06T15:22:13.904Z,32
2014-07-06T15:22:31.639Z,32
2014-07-06T15:22:48.748Z,32
2014-07-06T15:23:06.484Z,32
2014-07-06T15:23:23.469Z,32
2014-07-06T15:23:41.234Z,32
2014-07-06T15:23:56.969Z,32
2014-07-06T15:24:15.236Z,32
2014-07-06T15:24:33.002Z,32
2014-07-06T15:24:50.658Z,32
2014-07-06T15:25:08.441Z,32
2014-07-06T15:25:26.051Z,32
2014-07-06T15:25:43.660Z,32
2014-07-06T15:26:01.896Z,32
2014-07-06T15:26:19.489Z,32
2014-07-06T15:26:37.099Z,32
2014-07-06T15:26:55.333Z,32
2014-07-06T15:27:13.569Z,32
2014-07-06T15:27:31.804Z,32
2014-07-06T15:27:50.023Z,32
2014-07-06T15:28:07.635Z,32
2014-07-06T15:28:25.244Z,32
2014-07-06T15:28:43.619Z,32
2014-07-06T15:29:00.088Z,32
2014-07-06T15:29:18.309Z,32
2014-07-06T15:29:36.574Z,32
2014-07-06T15:29:54.887Z,32
2014-07-06T15:30:11.889Z,32
2014-07-06T15:30:29.514Z,32
2014-07-06T15:30:47.201Z,32
2014-07-06T15:31:04.155Z,32
2014-07-06T15:31:22.390Z,32
2014-07-06T15:31:40.624Z,32
2014-07-06T15:31:58.859Z,32
2014-07-06T15:32:16.471Z,32
2014-07-06T15:32:34.705Z,32
2014-07-06T15:32:51.815Z,31
2014-07-06T15:33:10.176Z,31
2014-07-06T15:33:27.145Z,31
2014-07-06T15:33:45.395Z,31
2014-07-06T15:34:02.989Z,31
2014-07-06T15:34:20.599Z,31
2014-07-06T15:34:38.208Z,31
2014-07-06T15:34:56.568Z,31
2014-07-06T15:35:14.804Z,31
2014-07-06T15:35:32.414Z,31
2014-07-06T15:35:50.023Z,31
2014-07-06T15:36:06.429Z,32
2014-07-06T15:36:23.478Z,31
2014-07-06T15:36:41.228Z,32
2014-07-06T15:36:58.291Z,32
2014-07-06T15:37:15.918Z,32
2014-07-06T15:37:33.621Z,32
2014-07-06T15:37:51.855Z,32
2014-07-06T15:38:10.121Z,32
2014-07-06T15:38:27.966Z,32
2014-07-06T15:38:44.935Z,32
2014-07-06T15:39:01.998Z,32
2014-07-06T15:39:19.626Z,32
2014-07-06T15:39:37.954Z,32
2014-07-06T15:39:56.188Z,32
2014-07-06T15:40:13.985Z,32
2014-07-06T15:40:30.330Z,32
2014-07-06T15:40:48.095Z,32
2014-07-06T15:41:05.720Z,32
2014-07-06T15:41:23.332Z,32
2014-07-06T15:41:41.019Z,32
2014-07-06T15:41:59.301Z,32
2014-07-06T15:42:17.597Z,32
2014-07-06T15:42:35.209Z,32
2014-07-06T15:42:52.849Z,32
2014-07-06T15:43:09.849Z,32
2014-07-06T15:43:28.086Z,32
2014-07-06T15:43:45.695Z,32
2014-07-06T15:44:03.305Z,32
2014-07-06T15:44:20.273Z,32
2014-07-06T15:44:37.885Z,32
2014-07-06T15:44:54.853Z,32
2014-07-06T15:45:12.463Z,32
2014-07-06T15:45:29.434Z,32
2014-07-06T15:45:47.668Z,32
2014-07-06T15:46:05.918Z,32
2014-07-06T15:46:24.139Z,32
2014-07-06T15:46:41.764Z,32
2014-07-06T15:46:59.998Z,32
2014-07-06T15:47:18.279Z,32
2014-07-06T15:47:35.391Z,32
2014-07-06T15:47:53.000Z,32
2014-07-06T15:48:10.781Z,32
2014-07-06T15:48:28.549Z,32
2014-07-06T15:48:46.346Z,32
2014-07-06T15:49:04.408Z,32
2014-07-06T15:49:22.051Z,32
2014-07-06T15:49:39.738Z,32
2014-07-06T15:49:56.879Z,32
2014-07-06T15:50:15.270Z,32
2014-07-06T15:50:33.522Z,32
2014-07-06T15:50:51.865Z,32
2014-07-06T15:51:08.928Z,32
2014-07-06T15:51:26.571Z,32
2014-07-06T15:51:44.352Z,32
2014-07-06T15:52:00.899Z,32
2014-07-06T15:52:19.383Z,32
2014-07-06T15:52:37.088Z,32
2014-07-06T15:52:54.682Z,32
2014-07-06T15:53:12.916Z,32
2014-07-06T15:53:30.512Z,32
2014-07-06T15:53:47.496Z,32
2014-07-06T15:54:04.496Z,32
2014-07-06T15:54:22.764Z,32
2014-07-06T15:54:40.405Z,32
2014-07-06T15:54:58.717Z,32
2014-07-06T15:55:17.123Z,32
2014-07-06T15:55:34.140Z,32
2014-07-06T15:55:51.796Z,32
2014-07-06T15:56:08.906Z,32
2014-07-06T15:56:26.751Z,32
2014-07-06T15:56:44.298Z,32
2014-07-06T15:57:02.580Z,32
2014-07-06T15:57:20.845Z,32
2014-07-06T15:57:37.847Z,32
2014-07-06T15:57:56.144Z,32
2014-07-06T15:58:13.785Z,32
2014-07-06T15:58:31.459Z,32
2014-07-06T15:58:48.490Z,32
2014-07-06T15:59:06.115Z,32
2014-07-06T15:59:24.398Z,32
2014-07-06T15:59:42.007Z,33
2014-07-06T15:59:59.648Z,33
2014-07-06T16:00:17.929Z,33
2014-07-06T16:00:35.041Z,33
2014-07-06T16:00:53.275Z,33
2014-07-06T16:01:11.556Z,33
2014-07-06T16:01:28.574Z,33
2014-07-06T16:01:46.871Z,33
2014-07-06T16:02:03.886Z,33
2014-07-06T16:02:22.153Z,33
2014-07-06T16:02:40.512Z,33
2014-07-06T16:02:57.528Z,33
2014-07-06T16:03:15.184Z,33
2014-07-06T16:03:32.781Z,33
2014-07-06T16:03:50.375Z,33
2014-07-06T16:04:08.000Z,33
2014-07-06T16:04:26.267Z,33
2014-07-06T16:04:43.908Z,33
2014-07-06T16:05:01.549Z,33
2014-07-06T16:05:19.267Z,33
2014-07-06T16:05:36.926Z,33
2014-07-06T16:05:55.207Z,33
2014-07-06T16:06:12.285Z,33
2014-07-06T16:06:29.911Z,33
2014-07-06T16:06:46.270Z,33
2014-07-06T16:07:04.567Z,33
2014-07-06T16:07:21.505Z,33
2014-07-06T16:07:38.522Z,33
2014-07-06T16:07:56.757Z,33
2014-07-06T16:08:15.976Z,34
2014-07-06T16:08:34.212Z,33
2014-07-06T16:08:52.478Z,34
2014-07-06T16:09:09.540Z,34
2014-07-06T16:09:27.776Z,34
2014-07-06T16:09:46.136Z,34
2014-07-06T16:10:03.886Z,34
2014-07-06T16:10:21.667Z,34
2014-07-06T16:10:38.857Z,34
2014-07-06T16:10:56.653Z,34
2014-07-06T16:11:13.763Z,34
2014-07-06T16:11:32.155Z,34
2014-07-06T16:11:49.796Z,34
2014-07-06T16:12:08.077Z,34
2014-07-06T16:12:26.361Z,34
2014-07-06T16:12:43.345Z,34
2014-07-06T16:13:00.970Z,34
2014-07-06T16:13:19.204Z,34
2014-07-06T16:13:36.206Z,34
2014-07-06T16:13:53.847Z,34
2014-07-06T16:14:11.488Z,34
2014-07-06T16:14:29.145Z,34
2014-07-06T16:14:48.379Z,34
2014-07-06T16:15:05.317Z,34
2014-07-06T16:15:23.553Z,35
2014-07-06T16:15:41.819Z,35
2014-07-06T16:15:58.834Z,35
2014-07-06T16:16:16.412Z,35
2014-07-06T16:16:33.477Z,35
2014-07-06T16:16:51.711Z,35
2014-07-06T16:17:09.399Z,35
2014-07-06T16:17:26.307Z,35
2014-07-06T16:17:43.916Z,35
2014-07-06T16:18:01.666Z,35
2014-07-06T16:18:19.901Z,35
2014-07-06T16:18:38.184Z,35
2014-07-06T16:18:56.372Z,35
2014-07-06T16:19:14.622Z,35
2014-07-06T16:19:32.217Z,35
2014-07-06T16:19:50.452Z,35
2014-07-06T16:20:08.045Z,35
2014-07-06T16:20:26.282Z,35
2014-07-06T16:20:44.516Z,35
2014-07-06T16:21:02.126Z,35
2014-07-06T16:21:19.141Z,35
2014-07-06T16:21:37.440Z,35
2014-07-06T16:21:55.299Z,35
2014-07-06T16:22:11.784Z,35
2014-07-06T16:22:30.051Z,35
2014-07-06T16:22:47.786Z,35
2014-07-06T16:23:05.536Z,35
2014-07-06T16:23:52.819Z,35
2014-07-06T16:24:10.428Z,35
2014-07-06T16:24:28.648Z,35
2014-07-06T16:24:45.695Z,35
2014-07-06T16:25:02.883Z,35
2014-07-06T16:25:20.445Z,35
2014-07-06T16:25:38.776Z,35
2014-07-06T16:25:56.979Z,35
2014-07-06T16:26:14.651Z,35
2014-07-06T16:26:31.075Z,35
2014-07-06T16:26:48.841Z,35
2014-07-06T16:27:06.591Z,35
2014-07-06T16:27:24.372Z,36
2014-07-06T16:27:42.671Z,35
2014-07-06T16:27:59.108Z,35
2014-07-06T16:28:17.390Z,35
2014-07-06T16:28:35.126Z,35
2014-07-06T16:28:52.860Z,36
2014-07-06T16:29:09.845Z,36
2014-07-06T16:29:28.282Z,36
2014-07-06T16:29:45.987Z,36
2014-07-06T16:30:03.628Z,36
2014-07-06T16:30:21.253Z,36
2014-07-06T16:30:38.863Z,36
2014-07-06T16:30:55.863Z,36
2014-07-06T16:31:14.207Z,36
2014-07-06T16:32:02.443Z,36
2014-07-06T16:32:20.740Z,36
2014-07-06T16:32:38.384Z,36
2014-07-06T16:32:54.743Z,36
2014-07-06T16:33:12.525Z,36
2014-07-06T16:33:30.181Z,36
2014-07-06T16:33:48.652Z,36
2014-07-06T16:34:07.011Z,36
2014-07-06T16:34:25.230Z,36
2014-07-06T16:34:42.840Z,35
2014-07-06T16:35:00.653Z,35
2014-07-06T16:35:18.856Z,35
2014-07-06T16:35:35.246Z,35
2014-07-06T16:35:53.108Z,35
2014-07-06T16:36:11.342Z,34
2014-07-06T16:36:28.389Z,35
2014-07-06T16:36:46.047Z,35
2014-07-06T16:37:03.703Z,34
2014-07-06T16:37:20.672Z,34
2014-07-06T16:37:37.159Z,34
2014-07-06T16:37:54.159Z,34
2014-07-06T16:38:11.877Z,34
2014-07-06T16:38:30.080Z,34
2014-07-06T16:38:47.848Z,34
2014-07-06T16:39:05.504Z,35
2014-07-06T16:39:23.817Z,35
2014-07-06T16:39:42.178Z,35
2014-07-06T16:40:00.069Z,35
2014-07-06T16:40:17.913Z,35
2014-07-06T16:40:34.959Z,36
2014-07-06T16:40:51.961Z,36
2014-07-06T16:41:10.211Z,36
2014-07-06T16:41:27.274Z,35
2014-07-06T16:41:44.917Z,36
2014-07-06T16:42:03.338Z,36
2014-07-06T16:42:20.932Z,36
2014-07-06T16:42:38.700Z,36
2014-07-06T16:42:56.356Z,36
2014-07-06T16:43:14.606Z,36
2014-07-06T16:43:31.840Z,36
2014-07-06T16:43:50.124Z,35
2014-07-06T16:44:07.889Z,35
2014-07-06T16:44:26.280Z,36
2014-07-06T16:44:43.343Z,36
2014-07-06T16:45:01.015Z,36
2014-07-06T16:45:18.078Z,36
2014-07-06T16:45:36.390Z,36
2014-07-06T16:45:54.127Z,36
2014-07-06T16:46:13.283Z,36
2014-07-06T16:46:31.049Z,36
2014-07-06T16:46:48.660Z,36
2014-07-06T16:47:06.269Z,36
2014-07-06T16:47:23.863Z,36
2014-07-06T16:47:42.162Z,36
2014-07-06T16:48:00.021Z,36
2014-07-06T16:48:17.709Z,36
2014-07-06T16:48:35.959Z,36
2014-07-06T16:48:53.571Z,35
2014-07-06T16:49:12.149Z,35
2014-07-06T16:49:30.587Z,35
2014-07-06T16:49:48.197Z,36
2014-07-06T16:50:07.057Z,36
2014-07-06T16:50:24.072Z,36
2014-07-06T16:50:41.105Z,36
2014-07-06T16:50:56.965Z,36
2014-07-06T16:51:14.652Z,36
2014-07-06T16:51:32.902Z,36
2014-07-06T16:51:50.545Z,36
2014-07-06T16:52:08.154Z,36
2014-07-06T16:52:26.420Z,36
2014-07-06T16:52:44.812Z,36
2014-07-06T16:53:03.046Z,36
2014-07-06T16:53:20.077Z,36
2014-07-06T16:53:37.110Z,36
2014-07-06T16:53:54.782Z,36
2014-07-06T16:54:11.939Z,36
2014-07-06T16:54:29.923Z,36
2014-07-06T16:54:48.269Z,36
2014-07-06T16:55:05.316Z,36
2014-07-06T16:55:23.612Z,36
2014-07-06T16:55:40.739Z,36
2014-07-06T16:55:58.474Z,36
2014-07-06T16:56:16.818Z,36
2014-07-06T16:56:35.193Z,36
2014-07-06T16:56:51.570Z,36
2014-07-06T16:57:09.804Z,36
2014-07-06T16:57:28.054Z,36
2014-07-06T16:57:45.651Z,36
2014-07-06T16:58:03.354Z,36
2014-07-06T16:58:21.713Z,36
2014-07-06T16:58:40.230Z,36
2014-07-06T16:58:57.355Z,36
2014-07-06T16:59:14.464Z,36
2014-07-06T16:59:32.152Z,36
2014-07-06T16:59:49.139Z,36
2014-07-06T17:00:06.811Z,36
2014-07-06T17:00:24.577Z,36
2014-07-06T17:00:42.313Z,36
2014-07-06T17:00:59.391Z,36
2014-07-06T17:01:17.000Z,36
2014-07-06T17:01:34.657Z,36
2014-07-06T17:01:51.643Z,36
2014-07-06T17:02:08.612Z,36
2014-07-06T17:02:26.221Z,36
2014-07-06T17:02:43.817Z,36
2014-07-06T17:03:01.458Z,36
2014-07-06T17:03:19.786Z,36
2014-07-06T17:03:38.224Z,36
2014-07-06T17:03:55.302Z,36
2014-07-06T17:04:13.552Z,36
2014-07-06T17:04:30.599Z,36
2014-07-06T17:04:48.195Z,36
2014-07-06T17:05:05.179Z,36
2014-07-06T17:05:22.914Z,36
2014-07-06T17:05:41.150Z,36
2014-07-06T17:05:58.806Z,36
2014-07-06T17:06:16.494Z,36
2014-07-06T17:06:33.525Z,36
2014-07-06T17:06:51.761Z,36
2014-07-06T17:07:09.355Z,36
2014-07-06T17:07:26.340Z,36
2014-07-06T17:07:44.810Z,36
2014-07-06T17:08:02.420Z,36
2014-07-06T17:08:20.654Z,36
2014-07-06T17:08:38.890Z,36
2014-07-06T17:08:56.484Z,36
2014-07-06T17:09:14.094Z,36
2014-07-06T17:09:32.359Z,36
2014-07-06T17:09:50.580Z,36
2014-07-06T17:10:08.314Z,36
2014-07-06T17:10:25.924Z,36
2014-07-06T17:10:43.535Z,36
2014-07-06T17:11:01.129Z,36
2014-07-06T17:11:18.801Z,36
2014-07-06T17:11:37.160Z,36
2014-07-06T17:11:55.426Z,36
2014-07-06T17:12:13.661Z,36
2014-07-06T17:12:31.270Z,36
2014-07-06T17:12:49.546Z,36
2014-07-06T17:13:07.155Z,36
2014-07-06T17:13:24.889Z,36
2014-07-06T17:13:42.524Z,36
2014-07-06T17:14:00.258Z,36
2014-07-06T17:14:18.462Z,36
2014-07-06T17:14:36.071Z,36
2014-07-06T17:14:54.346Z,36
2014-07-06T17:15:12.581Z,36
2014-07-06T17:15:30.893Z,36
2014-07-06T17:15:49.200Z,36
2014-07-06T17:16:07.434Z,36
2014-07-06T17:16:25.044Z,36
2014-07-06T17:16:42.658Z,36
2014-07-06T17:17:00.893Z,36
2014-07-06T17:17:18.065Z,36
2014-07-06T17:17:36.299Z,36
2014-07-06T17:17:54.535Z,36
2014-07-06T17:18:12.144Z,36
2014-07-06T17:18:30.425Z,36
2014-07-06T17:18:48.644Z,36
2014-07-06T17:19:06.238Z,36
2014-07-06T17:19:23.848Z,36
2014-07-06T17:24:12.621Z,36
2014-07-06T17:37:23.562Z,38
2014-07-06T17:38:33.486Z,38
2014-07-06T17:38:51.707Z,37
2014-07-06T17:39:08.675Z,37
2014-07-06T17:39:26.269Z,37
2014-07-06T17:39:43.880Z,37
2014-07-06T17:40:00.990Z,37
2014-07-06T17:40:18.584Z,37
2014-07-06T17:40:36.818Z,37
2014-07-06T17:40:54.413Z,37
2014-07-06T17:41:12.647Z,37
2014-07-06T17:41:30.881Z,36
2014-07-06T17:41:47.869Z,36
2014-07-06T17:42:06.088Z,36
2014-07-06T17:42:23.838Z,37
2014-07-06T17:42:41.447Z,36
2014-07-06T17:42:59.667Z,37
2014-07-06T17:43:17.448Z,37
2014-07-06T17:43:35.057Z,37
2014-07-06T17:43:52.653Z,37
2014-07-06T17:44:10.887Z,37
2014-07-06T17:44:28.497Z,37
2014-07-06T17:44:45.468Z,37
2014-07-06T17:45:03.077Z,37
2014-07-06T17:45:20.046Z,37
2014-07-06T17:45:37.014Z,37
2014-07-06T17:45:55.251Z,37
2014-07-06T17:46:12.860Z,37
2014-07-06T17:46:30.454Z,37
2014-07-06T17:46:47.438Z,37
2014-07-06T17:47:04.409Z,37
2014-07-06T17:47:22.643Z,37
2014-07-06T17:47:40.878Z,37
2014-07-06T17:47:58.474Z,37
2014-07-06T17:48:16.083Z,37
2014-07-06T17:48:32.427Z,37
2014-07-06T17:48:50.786Z,36
2014-07-06T17:49:08.522Z,36
2014-07-06T17:49:26.757Z,37
2014-07-06T17:49:44.991Z,37
2014-07-06T17:50:02.603Z,36
2014-07-06T17:50:20.821Z,37
2014-07-06T17:50:38.431Z,36
2014-07-06T17:50:56.056Z,36
2014-07-06T17:51:13.636Z,36
2014-07-06T17:51:31.230Z,36
2014-07-06T17:51:49.464Z,36
2014-07-06T17:52:06.435Z,37
2014-07-06T17:52:24.669Z,36
2014-07-06T17:52:42.263Z,37
2014-07-06T17:52:59.247Z,37
2014-07-06T17:53:16.360Z,37
2014-07-06T17:53:34.094Z,37
2014-07-06T17:53:51.188Z,37
2014-07-06T17:54:08.173Z,37
2014-07-06T17:54:25.142Z,37
2014-07-06T17:54:41.501Z,37
2014-07-06T17:54:59.720Z,37
2014-07-06T17:55:17.956Z,37
2014-07-06T17:55:34.316Z,37
2014-07-06T17:55:52.675Z,37
2014-07-06T17:56:10.286Z,37
2014-07-06T17:56:27.896Z,37
2014-07-06T17:56:46.130Z,37
2014-07-06T17:57:03.099Z,37
2014-07-06T17:57:21.335Z,37
2014-07-06T17:57:39.570Z,37
2014-07-06T17:57:57.163Z,37
2014-07-06T17:58:15.400Z,37
2014-07-06T17:58:33.634Z,37
2014-07-06T17:58:51.869Z,37
2014-07-06T17:59:10.089Z,37
2014-07-06T17:59:28.324Z,37
2014-07-06T17:59:46.714Z,37
2014-07-06T18:00:05.074Z,37
2014-07-06T18:00:23.435Z,37
2014-07-06T18:00:39.794Z,37
2014-07-06T18:00:58.013Z,37
2014-07-06T18:01:15.625Z,37
2014-07-06T18:01:33.859Z,37
2014-07-06T18:01:52.093Z,37
2014-07-06T18:02:09.687Z,37
2014-07-06T18:02:27.297Z,37
2014-07-06T18:02:44.907Z,37
2014-07-06T18:03:03.126Z,37
2014-07-06T18:03:20.738Z,37
2014-07-06T18:03:38.332Z,37
2014-07-06T18:03:56.066Z,37
2014-07-06T18:04:14.302Z,37
2014-07-06T18:04:32.537Z,37
2014-07-06T18:04:49.506Z,37
2014-07-06T18:05:07.115Z,37
2014-07-06T18:05:25.350Z,37
2014-07-06T18:05:42.944Z,38
2014-07-06T18:06:00.553Z,38
2014-07-06T18:06:18.790Z,38
2014-07-06T18:06:36.384Z,37
2014-07-06T18:06:53.993Z,38
2014-07-06T18:07:11.587Z,37
2014-07-06T18:07:29.824Z,37
2014-07-06T18:07:48.058Z,37
2014-07-06T18:08:06.293Z,37
2014-07-06T18:08:24.514Z,38
2014-07-06T18:08:42.748Z,38
2014-07-06T18:09:00.982Z,38
2014-07-06T18:09:18.592Z,38
2014-07-06T18:09:36.812Z,38
2014-07-06T18:09:54.422Z,38
2014-07-06T18:10:12.156Z,38
2014-07-06T18:10:29.768Z,38
2014-07-06T18:10:48.002Z,38
2014-07-06T18:11:05.611Z,37
2014-07-06T18:11:23.848Z,38
2014-07-06T18:11:41.441Z,38
2014-07-06T18:11:59.676Z,37
2014-07-06T18:12:17.910Z,38
2014-07-06T18:12:36.146Z,38
2014-07-06T18:12:54.380Z,38
2014-07-06T18:13:12.614Z,37
2014-07-06T18:13:30.852Z,37
2014-07-06T18:13:49.070Z,37
2014-07-06T18:14:07.430Z,38
2014-07-06T18:14:25.664Z,38
2014-07-06T18:14:43.260Z,38
2014-07-06T18:15:00.869Z,37
2014-07-06T18:15:18.463Z,38
2014-07-06T18:15:36.839Z,38
2014-07-06T18:15:55.058Z,38
2014-07-06T18:16:13.292Z,38
2014-07-06T18:16:30.902Z,38
2014-07-06T18:16:49.139Z,38
2014-07-06T18:17:07.373Z,38
2014-07-06T18:17:25.608Z,38
2014-07-06T18:17:43.843Z,38
2014-07-06T18:18:02.077Z,38
2014-07-06T18:18:19.671Z,38
2014-07-06T18:18:37.284Z,38
2014-07-06T18:18:54.893Z,37
2014-07-06T18:19:13.252Z,37
2014-07-06T18:19:31.471Z,37
2014-07-06T18:19:49.706Z,38
2014-07-06T18:20:07.316Z,38
2014-07-06T18:20:25.550Z,38
2014-07-06T18:20:43.787Z,37
2014-07-06T18:21:02.005Z,37
2014-07-06T18:21:18.990Z,37
2014-07-06T18:21:37.226Z,38
2014-07-06T18:21:54.820Z,38
2014-07-06T18:22:13.054Z,38
2014-07-06T18:22:31.289Z,38
2014-07-06T18:22:48.884Z,38
2014-07-06T18:23:06.619Z,37
2014-07-06T18:23:24.853Z,38
2014-07-06T18:23:42.449Z,38
2014-07-06T18:24:00.683Z,38
2014-07-06T18:24:18.293Z,38
2014-07-06T18:24:36.527Z,38
2014-07-06T18:24:54.123Z,38
2014-07-06T18:25:12.357Z,37
2014-07-06T18:25:30.591Z,38
2014-07-06T18:25:48.828Z,38
2014-07-06T18:26:07.062Z,38
2014-07-06T18:26:24.656Z,38
2014-07-06T18:26:42.267Z,37
2014-07-06T18:26:58.611Z,38
2014-07-06T18:27:16.220Z,38
2014-07-06T18:27:33.189Z,38
2014-07-06T18:27:50.801Z,38
2014-07-06T18:28:09.035Z,38
2014-07-06T18:28:27.269Z,38
2014-07-06T18:28:45.506Z,38
2014-07-06T18:29:03.099Z,38
2014-07-06T18:29:21.459Z,38
2014-07-06T18:29:39.693Z,38
2014-07-06T18:29:57.930Z,38
2014-07-06T18:30:16.148Z,38
2014-07-06T18:30:34.383Z,38
2014-07-06T18:30:52.619Z,38
2014-07-06T18:31:10.853Z,37
2014-07-06T18:31:29.088Z,38
2014-07-06T18:31:46.057Z,38
2014-07-06T18:32:03.668Z,38
2014-07-06T18:32:21.902Z,38
2014-07-06T18:32:38.887Z,38
2014-07-06T18:32:57.123Z,38
2014-07-06T18:33:15.357Z,38
2014-07-06T18:33:32.951Z,38
2014-07-06T18:33:51.188Z,38
2014-07-06T18:34:08.797Z,38
2014-07-06T18:34:26.391Z,38
2014-07-06T18:34:44.125Z,38
2014-07-06T18:35:01.736Z,38
2014-07-06T18:35:19.330Z,38
2014-07-06T18:35:37.565Z,38
2014-07-06T18:35:55.160Z,38
2014-07-06T18:36:13.395Z,38
2014-07-06T18:36:31.004Z,38
2014-07-06T18:36:49.238Z,38
2014-07-06T18:37:05.725Z,39
2014-07-06T18:37:23.319Z,39
2014-07-06T18:37:40.303Z,39
2014-07-06T18:37:57.287Z,38
2014-07-06T18:38:15.649Z,38
2014-07-06T18:38:33.242Z,39
2014-07-06T18:38:50.992Z,39
2014-07-06T18:39:08.587Z,38
2014-07-06T18:39:26.822Z,39
2014-07-06T18:39:45.056Z,38
2014-07-06T18:40:03.293Z,39
2014-07-06T18:40:20.903Z,38
2014-07-06T18:40:38.512Z,39
2014-07-06T18:40:55.481Z,39
2014-07-06T18:41:13.717Z,38
2014-07-06T18:41:31.952Z,38
2014-07-06T18:41:49.545Z,38
2014-07-06T18:42:07.140Z,38
2014-07-06T18:42:24.749Z,39
2014-07-06T18:42:42.984Z,39
2014-07-06T18:43:00.578Z,39
2014-07-06T18:43:17.548Z,39
2014-07-06T18:43:35.158Z,39
2014-07-06T18:43:53.408Z,39
2014-07-06T18:44:10.989Z,38
2014-07-06T18:44:28.598Z,38
2014-07-06T18:44:46.208Z,39
2014-07-06T18:45:03.801Z,38
2014-07-06T18:45:21.412Z,39
2014-07-06T18:45:39.021Z,39
2014-07-06T18:45:56.615Z,39
2014-07-06T18:46:14.226Z,39
2014-07-06T18:46:31.820Z,39
2014-07-06T18:46:48.804Z,39
2014-07-06T18:47:07.039Z,39
2014-07-06T18:47:24.634Z,39
2014-07-06T18:47:41.603Z,39
2014-07-06T18:47:59.213Z,39
2014-07-06T18:48:16.824Z,39
2014-07-06T18:48:33.808Z,39
2014-07-06T18:48:52.043Z,39
2014-07-06T18:49:09.636Z,39
2014-07-06T18:49:27.248Z,39
2014-07-06T18:49:45.482Z,39
2014-07-06T18:50:03.076Z,39
2014-07-06T18:50:20.687Z,39
2014-07-06T18:50:38.281Z,39
2014-07-06T18:50:56.515Z,39
2014-07-06T18:51:14.750Z,39
2014-07-06T18:51:32.986Z,39
2014-07-06T18:51:51.221Z,39
2014-07-06T18:52:09.580Z,39
2014-07-06T18:52:27.816Z,39
2014-07-06T18:52:45.426Z,39
2014-07-06T18:53:03.785Z,39
2014-07-06T18:53:22.019Z,39
2014-07-06T18:53:39.616Z,39
2014-07-06T18:53:57.851Z,39
2014-07-06T18:54:14.835Z,39
2014-07-06T18:54:32.430Z,39
2014-07-06T18:54:50.039Z,39
2014-07-06T18:55:08.273Z,39
2014-07-06T18:55:26.494Z,39
2014-07-06T18:55:44.104Z,39
2014-07-06T18:56:01.713Z,39
2014-07-06T18:56:19.947Z,39
2014-07-06T18:56:37.543Z,39
2014-07-06T18:56:55.902Z,39
2014-07-06T18:57:12.262Z,39
2014-07-06T18:57:29.873Z,39
2014-07-06T18:57:47.483Z,39
2014-07-06T18:58:05.701Z,39
2014-07-06T18:58:23.936Z,39
2014-07-06T18:58:42.172Z,39
2014-07-06T18:58:59.156Z,39
2014-07-06T18:59:17.375Z,39
2014-07-06T18:59:35.612Z,39
2014-07-06T18:59:53.221Z,39
2014-07-06T19:00:11.580Z,39
2014-07-06T19:00:29.817Z,39
2014-07-06T19:00:48.051Z,39
2014-07-06T19:01:06.285Z,39
2014-07-06T19:01:24.504Z,39
2014-07-06T19:01:42.880Z,39
2014-07-06T19:01:59.849Z,39
2014-07-06T19:02:17.443Z,39
2014-07-06T19:02:35.055Z,39
2014-07-06T19:02:53.274Z,39
2014-07-06T19:03:10.883Z,39
2014-07-06T19:03:29.118Z,39
2014-07-06T19:03:46.713Z,39
2014-07-06T19:04:04.323Z,39
2014-07-06T19:04:21.916Z,39
2014-07-06T19:04:39.528Z,39
2014-07-06T19:04:57.137Z,39
2014-07-06T19:05:14.731Z,39
2014-07-06T19:05:32.340Z,39
2014-07-06T19:05:50.577Z,39
2014-07-06T19:06:08.170Z,39
2014-07-06T19:06:25.155Z,39
2014-07-06T19:06:42.749Z,39
2014-07-06T19:07:00.359Z,39
2014-07-06T19:07:18.593Z,39
2014-07-06T19:07:36.828Z,39
2014-07-06T19:07:55.049Z,39
2014-07-06T19:08:13.284Z,39
2014-07-06T19:08:31.518Z,39
2014-07-06T19:08:47.863Z,39
2014-07-06T19:09:04.207Z,39
2014-07-06T19:09:22.441Z,39
2014-07-06T19:09:39.425Z,39
2014-07-06T19:09:56.412Z,39
2014-07-06T19:10:14.021Z,39
2014-07-06T19:10:32.240Z,39
2014-07-06T19:10:50.474Z,39
2014-07-06T19:11:07.586Z,39
2014-07-06T19:11:25.820Z,39
2014-07-06T19:11:44.054Z,39
2014-07-06T19:12:01.792Z,39
2014-07-06T19:12:20.026Z,39
2014-07-06T19:12:38.261Z,39
2014-07-06T19:12:56.479Z,39
2014-07-06T19:13:13.466Z,39
2014-07-06T19:13:31.684Z,39
2014-07-06T19:13:49.294Z,39
2014-07-06T19:14:06.890Z,39
2014-07-06T19:14:25.124Z,39
2014-07-06T19:14:43.358Z,39
2014-07-06T19:15:00.952Z,39
2014-07-06T19:15:19.187Z,39
2014-07-06T19:15:37.422Z,39
2014-07-06T19:15:55.656Z,39
2014-07-06T19:16:13.253Z,39
2014-07-06T19:16:30.862Z,39
2014-07-06T19:16:48.456Z,39
2014-07-06T19:17:06.692Z,39
2014-07-06T19:17:31.661Z,40
2014-07-06T19:17:49.896Z,39
2014-07-06T19:18:07.506Z,39
2014-07-06T19:18:25.115Z,39
2014-07-06T19:19:00.272Z,40
2014-07-06T19:20:00.431Z,40
2014-07-06T19:20:18.166Z,39
2014-07-06T19:20:36.401Z,39
2014-07-06T19:20:53.385Z,39
2014-07-06T19:22:04.247Z,40
2014-07-06T19:22:22.483Z,39
2014-07-06T19:22:40.076Z,39
2014-07-06T19:22:58.311Z,39
2014-07-06T19:23:15.907Z,39
2014-07-06T19:23:43.219Z,39
2014-07-06T19:24:26.862Z,39
2014-07-06T19:25:19.957Z,40
2014-07-06T19:26:30.569Z,39
2014-07-06T19:26:48.178Z,39
2014-07-06T19:27:05.788Z,39
2014-07-06T19:27:23.384Z,39
2014-07-06T19:27:41.619Z,39
2014-07-06T19:27:59.228Z,39
2014-07-06T19:28:16.822Z,39
2014-07-06T19:28:34.557Z,39
2014-07-06T19:28:52.167Z,39
2014-07-06T19:29:09.760Z,39
2014-07-06T19:29:41.044Z,40
